sensor_id;sensor_type;location;lat;lon;timestamp;temperature;humidity
43673;DHT22;41723;49.326;8.430;2023-02-28T00:00:05;2.80;94.20
43673;DHT22;41723;49.326;8.430;2023-02-28T00:02:42;2.80;94.20
43673;DHT22;41723;49.326;8.430;2023-02-28T00:05:08;2.70;94.00
43673;DHT22;41723;49.326;8.430;2023-02-28T00:07:34;2.60;94.40
43673;DHT22;41723;49.326;8.430;2023-02-28T00:09:59;2.60;94.30
43673;DHT22;41723;49.326;8.430;2023-02-28T00:12:25;2.50;94.60
43673;DHT22;41723;49.326;8.430;2023-02-28T00:14:51;2.40;95.00
43673;DHT22;41723;49.326;8.430;2023-02-28T00:17:17;2.40;95.10
43673;DHT22;41723;49.326;8.430;2023-02-28T00:19:49;2.40;95.30
43673;DHT22;41723;49.326;8.430;2023-02-28T00:22:15;2.40;95.40
43673;DHT22;41723;49.326;8.430;2023-02-28T00:24:41;2.20;95.80
43673;DHT22;41723;49.326;8.430;2023-02-28T00:27:07;2.10;96.10
43673;DHT22;41723;49.326;8.430;2023-02-28T00:29:32;2.10;96.30
43673;DHT22;41723;49.326;8.430;2023-02-28T00:31:58;2.10;96.50
43673;DHT22;41723;49.326;8.430;2023-02-28T00:34:24;2.00;96.80
43673;DHT22;41723;49.326;8.430;2023-02-28T00:36:49;1.90;97.00
43673;DHT22;41723;49.326;8.430;2023-02-28T00:39:15;1.80;97.00
43673;DHT22;41723;49.326;8.430;2023-02-28T00:41:41;1.70;97.00
43673;DHT22;41723;49.326;8.430;2023-02-28T00:44:06;1.80;97.10
43673;DHT22;41723;49.326;8.430;2023-02-28T00:46:32;1.70;97.00
43673;DHT22;41723;49.326;8.430;2023-02-28T00:48:58;1.60;97.20
43673;DHT22;41723;49.326;8.430;2023-02-28T00:51:23;1.50;97.20
43673;DHT22;41723;49.326;8.430;2023-02-28T00:53:49;1.50;97.20
43673;DHT22;41723;49.326;8.430;2023-02-28T00:56:16;1.50;97.30
43673;DHT22;41723;49.326;8.430;2023-02-28T00:58:41;1.50;97.30
43673;DHT22;41723;49.326;8.430;2023-02-28T01:01:07;1.40;97.10
43673;DHT22;41723;49.326;8.430;2023-02-28T01:03:32;1.40;97.00
43673;DHT22;41723;49.326;8.430;2023-02-28T01:05:58;1.30;97.20
43673;DHT22;41723;49.326;8.430;2023-02-28T01:08:24;1.30;97.30
43673;DHT22;41723;49.326;8.430;2023-02-28T01:10:49;1.30;97.40
43673;DHT22;41723;49.326;8.430;2023-02-28T01:13:15;1.30;97.30
43673;DHT22;41723;49.326;8.430;2023-02-28T01:15:42;1.20;97.50
43673;DHT22;41723;49.326;8.430;2023-02-28T01:18:08;1.10;97.60
43673;DHT22;41723;49.326;8.430;2023-02-28T01:20:36;1.00;98.10
43673;DHT22;41723;49.326;8.430;2023-02-28T01:23:02;1.00;98.20
43673;DHT22;41723;49.326;8.430;2023-02-28T01:25:27;0.90;98.30
43673;DHT22;41723;49.326;8.430;2023-02-28T01:27:53;1.00;98.20
43673;DHT22;41723;49.326;8.430;2023-02-28T01:30:19;1.00;98.20
43673;DHT22;41723;49.326;8.430;2023-02-28T01:32:46;1.10;98.30
43673;DHT22;41723;49.326;8.430;2023-02-28T01:35:11;1.20;98.00
43673;DHT22;41723;49.326;8.430;2023-02-28T01:37:37;1.10;98.20
43673;DHT22;41723;49.326;8.430;2023-02-28T01:40:03;1.00;98.50
43673;DHT22;41723;49.326;8.430;2023-02-28T01:42:28;1.10;98.70
43673;DHT22;41723;49.326;8.430;2023-02-28T01:47:39;1.10;98.70
43673;DHT22;41723;49.326;8.430;2023-02-28T01:50:07;1.10;98.80
43673;DHT22;41723;49.326;8.430;2023-02-28T01:52:34;1.10;99.00
43673;DHT22;41723;49.326;8.430;2023-02-28T01:55:01;1.00;99.10
43673;DHT22;41723;49.326;8.430;2023-02-28T01:57:30;1.00;99.10
43673;DHT22;41723;49.326;8.430;2023-02-28T02:00:13;0.90;99.50
43673;DHT22;41723;49.326;8.430;2023-02-28T02:02:46;0.90;99.50
43673;DHT22;41723;49.326;8.430;2023-02-28T02:05:21;1.00;99.30
43673;DHT22;41723;49.326;8.430;2023-02-28T02:07:48;0.90;99.60
43673;DHT22;41723;49.326;8.430;2023-02-28T02:10:19;0.90;99.60
43673;DHT22;41723;49.326;8.430;2023-02-28T02:13:05;0.80;99.40
43673;DHT22;41723;49.326;8.430;2023-02-28T02:15:40;0.80;99.60
43673;DHT22;41723;49.326;8.430;2023-02-28T02:18:50;0.70;99.70
43673;DHT22;41723;49.326;8.430;2023-02-28T02:29:38;0.70;99.90
43673;DHT22;41723;49.326;8.430;2023-02-28T02:39:59;0.80;99.90
43673;DHT22;41723;49.326;8.430;2023-02-28T02:42:45;0.80;99.90
43673;DHT22;41723;49.326;8.430;2023-02-28T02:45:25;0.80;99.90
43673;DHT22;41723;49.326;8.430;2023-02-28T02:47:53;0.80;99.90
43673;DHT22;41723;49.326;8.430;2023-02-28T02:50:23;0.80;99.90
43673;DHT22;41723;49.326;8.430;2023-02-28T02:52:51;0.90;99.90
43673;DHT22;41723;49.326;8.430;2023-02-28T02:55:18;1.00;99.90
43673;DHT22;41723;49.326;8.430;2023-02-28T02:57:47;1.00;99.90
43673;DHT22;41723;49.326;8.430;2023-02-28T03:00:13;1.00;99.90
43673;DHT22;41723;49.326;8.430;2023-02-28T03:02:40;1.10;99.90
43673;DHT22;41723;49.326;8.430;2023-02-28T03:05:08;1.00;99.90
43673;DHT22;41723;49.326;8.430;2023-02-28T03:07:37;1.00;99.90
43673;DHT22;41723;49.326;8.430;2023-02-28T03:10:25;1.00;99.90
43673;DHT22;41723;49.326;8.430;2023-02-28T03:12:50;1.00;99.90
43673;DHT22;41723;49.326;8.430;2023-02-28T03:25:39;1.10;99.90
43673;DHT22;41723;49.326;8.430;2023-02-28T03:28:18;0.90;99.90
43673;DHT22;41723;49.326;8.430;2023-02-28T03:30:52;0.90;99.90
43673;DHT22;41723;49.326;8.430;2023-02-28T03:35:52;0.90;99.90
43673;DHT22;41723;49.326;8.430;2023-02-28T03:40:49;0.80;99.90
43673;DHT22;41723;49.326;8.430;2023-02-28T03:43:18;0.80;99.90
43673;DHT22;41723;49.326;8.430;2023-02-28T03:45:44;0.70;99.90
43673;DHT22;41723;49.326;8.430;2023-02-28T03:48:21;0.60;99.90
43673;DHT22;41723;49.326;8.430;2023-02-28T03:50:49;0.70;99.90
43673;DHT22;41723;49.326;8.430;2023-02-28T03:53:25;0.80;99.90
43673;DHT22;41723;49.326;8.430;2023-02-28T03:55:53;0.60;99.90
43673;DHT22;41723;49.326;8.430;2023-02-28T04:00:59;0.60;99.90
43673;DHT22;41723;49.326;8.430;2023-02-28T04:03:33;0.60;99.90
43673;DHT22;41723;49.326;8.430;2023-02-28T04:05:59;0.60;99.90
43673;DHT22;41723;49.326;8.430;2023-02-28T04:08:24;0.60;99.90
43673;DHT22;41723;49.326;8.430;2023-02-28T04:10:52;0.60;99.90
43673;DHT22;41723;49.326;8.430;2023-02-28T04:13:18;0.70;99.90
43673;DHT22;41723;49.326;8.430;2023-02-28T04:15:44;0.60;99.90
43673;DHT22;41723;49.326;8.430;2023-02-28T04:18:09;0.60;99.90
43673;DHT22;41723;49.326;8.430;2023-02-28T04:20:35;0.70;99.90
43673;DHT22;41723;49.326;8.430;2023-02-28T04:23:00;0.70;99.90
43673;DHT22;41723;49.326;8.430;2023-02-28T04:25:26;0.80;99.90
43673;DHT22;41723;49.326;8.430;2023-02-28T04:27:52;0.80;99.90
43673;DHT22;41723;49.326;8.430;2023-02-28T04:30:17;0.90;99.90
43673;DHT22;41723;49.326;8.430;2023-02-28T04:32:43;0.80;99.90
43673;DHT22;41723;49.326;8.430;2023-02-28T04:35:08;0.80;99.90
43673;DHT22;41723;49.326;8.430;2023-02-28T04:37:34;0.70;99.90
43673;DHT22;41723;49.326;8.430;2023-02-28T04:40:02;0.70;99.90
43673;DHT22;41723;49.326;8.430;2023-02-28T04:42:28;0.70;99.90
43673;DHT22;41723;49.326;8.430;2023-02-28T04:45:00;0.60;99.90
43673;DHT22;41723;49.326;8.430;2023-02-28T04:47:26;0.60;99.90
43673;DHT22;41723;49.326;8.430;2023-02-28T04:49:51;0.60;99.90
43673;DHT22;41723;49.326;8.430;2023-02-28T04:52:17;0.60;99.90
43673;DHT22;41723;49.326;8.430;2023-02-28T04:54:43;0.60;99.90
43673;DHT22;41723;49.326;8.430;2023-02-28T04:57:08;0.70;99.90
43673;DHT22;41723;49.326;8.430;2023-02-28T04:59:34;0.60;99.90
43673;DHT22;41723;49.326;8.430;2023-02-28T05:01:59;0.60;99.90
43673;DHT22;41723;49.326;8.430;2023-02-28T05:04:25;0.50;99.90
43673;DHT22;41723;49.326;8.430;2023-02-28T05:06:51;0.50;99.90
43673;DHT22;41723;49.326;8.430;2023-02-28T05:09:16;0.50;99.90
43673;DHT22;41723;49.326;8.430;2023-02-28T05:11:42;0.50;99.90
43673;DHT22;41723;49.326;8.430;2023-02-28T05:14:11;0.40;99.90
43673;DHT22;41723;49.326;8.430;2023-02-28T05:16:37;0.30;99.90
43673;DHT22;41723;49.326;8.430;2023-02-28T05:19:03;0.20;99.90
43673;DHT22;41723;49.326;8.430;2023-02-28T05:23:54;0.20;99.90
43673;DHT22;41723;49.326;8.430;2023-02-28T05:26:20;0.30;99.90
43673;DHT22;41723;49.326;8.430;2023-02-28T05:28:46;0.30;99.90
43673;DHT22;41723;49.326;8.430;2023-02-28T05:31:12;0.30;99.90
43673;DHT22;41723;49.326;8.430;2023-02-28T05:33:37;0.40;99.90
43673;DHT22;41723;49.326;8.430;2023-02-28T05:36:03;0.40;99.90
43673;DHT22;41723;49.326;8.430;2023-02-28T05:38:29;0.60;99.90
43673;DHT22;41723;49.326;8.430;2023-02-28T05:40:55;0.70;99.90
43673;DHT22;41723;49.326;8.430;2023-02-28T05:43:21;0.70;99.90
43673;DHT22;41723;49.326;8.430;2023-02-28T05:45:47;0.80;99.90
43673;DHT22;41723;49.326;8.430;2023-02-28T05:48:12;0.80;99.90
43673;DHT22;41723;49.326;8.430;2023-02-28T05:50:38;0.90;99.90
43673;DHT22;41723;49.326;8.430;2023-02-28T05:53:04;1.00;99.90
43673;DHT22;41723;49.326;8.430;2023-02-28T05:55:29;0.90;99.90
43673;DHT22;41723;49.326;8.430;2023-02-28T05:57:55;1.00;99.90
43673;DHT22;41723;49.326;8.430;2023-02-28T06:00:21;1.00;99.90
43673;DHT22;41723;49.326;8.430;2023-02-28T06:02:46;1.00;99.90
43673;DHT22;41723;49.326;8.430;2023-02-28T06:05:13;0.90;99.90
43673;DHT22;41723;49.326;8.430;2023-02-28T06:07:39;1.00;99.90
43673;DHT22;41723;49.326;8.430;2023-02-28T06:10:04;1.10;99.90
43673;DHT22;41723;49.326;8.430;2023-02-28T06:12:30;1.10;99.90
43673;DHT22;41723;49.326;8.430;2023-02-28T06:14:56;1.10;99.90
43673;DHT22;41723;49.326;8.430;2023-02-28T06:17:21;1.30;99.90
43673;DHT22;41723;49.326;8.430;2023-02-28T06:19:47;1.30;99.90
43673;DHT22;41723;49.326;8.430;2023-02-28T06:22:13;1.30;99.90
43673;DHT22;41723;49.326;8.430;2023-02-28T06:24:39;1.30;99.90
43673;DHT22;41723;49.326;8.430;2023-02-28T06:27:04;1.30;99.90
43673;DHT22;41723;49.326;8.430;2023-02-28T06:29:33;1.30;99.90
43673;DHT22;41723;49.326;8.430;2023-02-28T06:31:59;1.40;99.90
43673;DHT22;41723;49.326;8.430;2023-02-28T06:34:25;1.40;99.90
43673;DHT22;41723;49.326;8.430;2023-02-28T06:36:51;1.50;99.90
43673;DHT22;41723;49.326;8.430;2023-02-28T06:39:17;1.40;99.80
43673;DHT22;41723;49.326;8.430;2023-02-28T06:41:43;1.40;99.90
43673;DHT22;41723;49.326;8.430;2023-02-28T06:44:15;1.50;99.90
43673;DHT22;41723;49.326;8.430;2023-02-28T06:46:41;1.50;99.60
43673;DHT22;41723;49.326;8.430;2023-02-28T06:49:07;1.40;99.80
43673;DHT22;41723;49.326;8.430;2023-02-28T06:51:34;1.40;99.90
43673;DHT22;41723;49.326;8.430;2023-02-28T06:54:00;1.40;99.90
43673;DHT22;41723;49.326;8.430;2023-02-28T06:56:26;1.40;99.60
43673;DHT22;41723;49.326;8.430;2023-02-28T06:58:55;1.50;99.50
43673;DHT22;41723;49.326;8.430;2023-02-28T07:01:25;1.40;99.70
43673;DHT22;41723;49.326;8.430;2023-02-28T07:03:50;1.40;99.90
43673;DHT22;41723;49.326;8.430;2023-02-28T07:06:18;1.40;99.90
43673;DHT22;41723;49.326;8.430;2023-02-28T07:08:43;1.40;99.60
43673;DHT22;41723;49.326;8.430;2023-02-28T07:11:09;1.50;99.70
43673;DHT22;41723;49.326;8.430;2023-02-28T07:13:35;1.50;99.90
43673;DHT22;41723;49.326;8.430;2023-02-28T07:16:05;1.60;99.80
43673;DHT22;41723;49.326;8.430;2023-02-28T07:18:31;1.60;99.20
43673;DHT22;41723;49.326;8.430;2023-02-28T07:20:56;1.70;99.40
43673;DHT22;41723;49.326;8.430;2023-02-28T07:23:22;1.80;98.60
43673;DHT22;41723;49.326;8.430;2023-02-28T07:25:49;1.70;98.50
43673;DHT22;41723;49.326;8.430;2023-02-28T07:28:15;1.70;98.70
43673;DHT22;41723;49.326;8.430;2023-02-28T07:30:40;1.70;98.70
43673;DHT22;41723;49.326;8.430;2023-02-28T07:33:06;1.90;98.80
43673;DHT22;41723;49.326;8.430;2023-02-28T07:35:32;2.00;98.50
43673;DHT22;41723;49.326;8.430;2023-02-28T07:37:57;2.00;98.40
43673;DHT22;41723;49.326;8.430;2023-02-28T07:40:23;2.00;98.30
43673;DHT22;41723;49.326;8.430;2023-02-28T07:42:49;2.00;98.40
43673;DHT22;41723;49.326;8.430;2023-02-28T07:45:16;2.10;97.90
43673;DHT22;41723;49.326;8.430;2023-02-28T07:47:43;2.10;98.40
43673;DHT22;41723;49.326;8.430;2023-02-28T07:50:10;2.20;98.10
43673;DHT22;41723;49.326;8.430;2023-02-28T07:52:37;2.30;97.80
43673;DHT22;41723;49.326;8.430;2023-02-28T07:55:02;2.30;97.10
43673;DHT22;41723;49.326;8.430;2023-02-28T07:57:28;2.20;97.90
43673;DHT22;41723;49.326;8.430;2023-02-28T07:59:53;2.40;97.50
43673;DHT22;41723;49.326;8.430;2023-02-28T08:02:19;2.50;97.30
43673;DHT22;41723;49.326;8.430;2023-02-28T08:04:44;2.70;97.00
43673;DHT22;41723;49.326;8.430;2023-02-28T08:07:12;2.70;96.50
43673;DHT22;41723;49.326;8.430;2023-02-28T08:09:39;2.70;96.90
43673;DHT22;41723;49.326;8.430;2023-02-28T08:12:05;2.80;96.90
43673;DHT22;41723;49.326;8.430;2023-02-28T08:14:31;2.80;96.10
43673;DHT22;41723;49.326;8.430;2023-02-28T08:16:56;2.70;96.40
43673;DHT22;41723;49.326;8.430;2023-02-28T08:19:22;2.80;96.80
43673;DHT22;41723;49.326;8.430;2023-02-28T08:21:48;3.00;96.10
43673;DHT22;41723;49.326;8.430;2023-02-28T08:24:13;3.10;96.20
43673;DHT22;41723;49.326;8.430;2023-02-28T08:26:39;3.20;95.70
43673;DHT22;41723;49.326;8.430;2023-02-28T08:29:04;3.10;95.90
43673;DHT22;41723;49.326;8.430;2023-02-28T08:31:30;3.20;95.70
43673;DHT22;41723;49.326;8.430;2023-02-28T08:33:55;3.20;95.80
43673;DHT22;41723;49.326;8.430;2023-02-28T08:36:24;3.20;95.40
43673;DHT22;41723;49.326;8.430;2023-02-28T08:38:50;3.30;95.70
43673;DHT22;41723;49.326;8.430;2023-02-28T08:41:16;3.30;95.30
43673;DHT22;41723;49.326;8.430;2023-02-28T08:43:41;3.20;95.60
43673;DHT22;41723;49.326;8.430;2023-02-28T08:46:07;3.20;95.20
43673;DHT22;41723;49.326;8.430;2023-02-28T08:48:34;3.30;95.30
43673;DHT22;41723;49.326;8.430;2023-02-28T08:51:02;3.30;95.40
43673;DHT22;41723;49.326;8.430;2023-02-28T08:53:28;3.40;95.30
43673;DHT22;41723;49.326;8.430;2023-02-28T08:55:57;3.30;95.00
43673;DHT22;41723;49.326;8.430;2023-02-28T08:58:23;3.30;94.90
43673;DHT22;41723;49.326;8.430;2023-02-28T09:00:49;3.40;95.00
43673;DHT22;41723;49.326;8.430;2023-02-28T09:03:15;3.50;95.10
43673;DHT22;41723;49.326;8.430;2023-02-28T09:05:41;3.50;94.60
43673;DHT22;41723;49.326;8.430;2023-02-28T09:08:06;3.50;94.80
43673;DHT22;41723;49.326;8.430;2023-02-28T09:10:32;3.30;95.00
43673;DHT22;41723;49.326;8.430;2023-02-28T09:12:57;3.30;94.90
43673;DHT22;41723;49.326;8.430;2023-02-28T09:15:23;3.30;94.80
43673;DHT22;41723;49.326;8.430;2023-02-28T09:17:48;3.50;94.80
43673;DHT22;41723;49.326;8.430;2023-02-28T09:20:14;3.50;94.60
43673;DHT22;41723;49.326;8.430;2023-02-28T09:22:39;3.50;94.50
43673;DHT22;41723;49.326;8.430;2023-02-28T09:25:05;3.60;94.50
43673;DHT22;41723;49.326;8.430;2023-02-28T09:27:31;3.60;94.50
43673;DHT22;41723;49.326;8.430;2023-02-28T09:29:56;3.80;94.40
43673;DHT22;41723;49.326;8.430;2023-02-28T09:32:22;3.60;94.30
43673;DHT22;41723;49.326;8.430;2023-02-28T09:34:47;3.50;94.50
43673;DHT22;41723;49.326;8.430;2023-02-28T09:37:13;3.70;94.20
43673;DHT22;41723;49.326;8.430;2023-02-28T09:39:38;3.80;94.20
43673;DHT22;41723;49.326;8.430;2023-02-28T09:42:04;3.90;94.20
43673;DHT22;41723;49.326;8.430;2023-02-28T09:44:31;3.90;94.00
43673;DHT22;41723;49.326;8.430;2023-02-28T09:47:08;3.90;93.80
43673;DHT22;41723;49.326;8.430;2023-02-28T09:49:37;3.90;93.60
43673;DHT22;41723;49.326;8.430;2023-02-28T09:52:04;3.90;93.60
43673;DHT22;41723;49.326;8.430;2023-02-28T09:54:32;4.00;93.70
43673;DHT22;41723;49.326;8.430;2023-02-28T09:57:05;4.10;93.60
43673;DHT22;41723;49.326;8.430;2023-02-28T09:59:52;4.20;93.50
43673;DHT22;41723;49.326;8.430;2023-02-28T10:04:54;4.10;93.30
43673;DHT22;41723;49.326;8.430;2023-02-28T10:10:05;4.30;93.00
43673;DHT22;41723;49.326;8.430;2023-02-28T10:12:32;4.30;92.80
43673;DHT22;41723;49.326;8.430;2023-02-28T10:14:58;4.30;92.90
43673;DHT22;41723;49.326;8.430;2023-02-28T10:17:29;4.30;92.70
43673;DHT22;41723;49.326;8.430;2023-02-28T10:20:12;4.10;92.60
43673;DHT22;41723;49.326;8.430;2023-02-28T10:22:49;4.10;92.50
43673;DHT22;41723;49.326;8.430;2023-02-28T10:25:17;4.20;93.00
43673;DHT22;41723;49.326;8.430;2023-02-28T10:27:43;4.30;92.80
43673;DHT22;41723;49.326;8.430;2023-02-28T10:30:09;4.20;92.90
43673;DHT22;41723;49.326;8.430;2023-02-28T10:32:36;4.30;93.00
43673;DHT22;41723;49.326;8.430;2023-02-28T10:37:38;4.40;92.40
43673;DHT22;41723;49.326;8.430;2023-02-28T10:40:05;4.30;92.70
43673;DHT22;41723;49.326;8.430;2023-02-28T10:42:31;4.30;92.10
43673;DHT22;41723;49.326;8.430;2023-02-28T10:45:09;4.40;92.70
43673;DHT22;41723;49.326;8.430;2023-02-28T10:47:35;4.40;92.20
43673;DHT22;41723;49.326;8.430;2023-02-28T10:50:23;4.40;92.30
43673;DHT22;41723;49.326;8.430;2023-02-28T10:52:51;4.50;92.10
43673;DHT22;41723;49.326;8.430;2023-02-28T10:55:22;4.50;92.20
43673;DHT22;41723;49.326;8.430;2023-02-28T10:57:50;4.60;91.90
43673;DHT22;41723;49.326;8.430;2023-02-28T11:02:41;4.60;91.60
43673;DHT22;41723;49.326;8.430;2023-02-28T11:05:27;4.70;91.60
43673;DHT22;41723;49.326;8.430;2023-02-28T11:07:59;4.60;91.70
43673;DHT22;41723;49.326;8.430;2023-02-28T11:10:28;4.70;91.70
43673;DHT22;41723;49.326;8.430;2023-02-28T11:12:55;4.70;91.70
43673;DHT22;41723;49.326;8.430;2023-02-28T11:15:28;4.70;91.30
43673;DHT22;41723;49.326;8.430;2023-02-28T11:17:56;4.90;91.20
43673;DHT22;41723;49.326;8.430;2023-02-28T11:20:23;5.00;90.90
43673;DHT22;41723;49.326;8.430;2023-02-28T11:22:50;5.10;91.10
43673;DHT22;41723;49.326;8.430;2023-02-28T11:25:23;5.30;90.90
43673;DHT22;41723;49.326;8.430;2023-02-28T11:27:54;5.60;90.40
43673;DHT22;41723;49.326;8.430;2023-02-28T11:31:03;5.80;90.50
43673;DHT22;41723;49.326;8.430;2023-02-28T11:33:28;5.60;90.00
43673;DHT22;41723;49.326;8.430;2023-02-28T11:36:02;5.90;90.50
43673;DHT22;41723;49.326;8.430;2023-02-28T11:38:28;6.40;90.10
43673;DHT22;41723;49.326;8.430;2023-02-28T11:46:06;6.90;87.70
43673;DHT22;41723;49.326;8.430;2023-02-28T11:51:15;6.70;86.90
43673;DHT22;41723;49.326;8.430;2023-02-28T11:53:49;6.80;87.30
43673;DHT22;41723;49.326;8.430;2023-02-28T11:58:54;6.90;85.60
43673;DHT22;41723;49.326;8.430;2023-02-28T12:01:38;7.30;85.50
43673;DHT22;41723;49.326;8.430;2023-02-28T12:06:40;7.50;84.70
43673;DHT22;41723;49.326;8.430;2023-02-28T12:11:44;7.40;83.50
43673;DHT22;41723;49.326;8.430;2023-02-28T12:19:38;7.00;85.60
43673;DHT22;41723;49.326;8.430;2023-02-28T12:27:36;7.60;84.00
43673;DHT22;41723;49.326;8.430;2023-02-28T12:30:24;7.80;83.40
43673;DHT22;41723;49.326;8.430;2023-02-28T12:33:05;7.90;82.90
43673;DHT22;41723;49.326;8.430;2023-02-28T12:35:36;7.60;82.50
43673;DHT22;41723;49.326;8.430;2023-02-28T12:38:09;7.60;83.20
43673;DHT22;41723;49.326;8.430;2023-02-28T12:40:43;8.00;82.60
43673;DHT22;41723;49.326;8.430;2023-02-28T12:43:09;8.50;82.80
43673;DHT22;41723;49.326;8.430;2023-02-28T12:45:52;8.60;81.20
43673;DHT22;41723;49.326;8.430;2023-02-28T12:48:24;8.70;81.40
43673;DHT22;41723;49.326;8.430;2023-02-28T12:50:51;8.60;81.10
43673;DHT22;41723;49.326;8.430;2023-02-28T12:55:47;8.60;80.00
43673;DHT22;41723;49.326;8.430;2023-02-28T13:01:04;8.20;81.60
43673;DHT22;41723;49.326;8.430;2023-02-28T13:03:35;8.30;80.20
43673;DHT22;41723;49.326;8.430;2023-02-28T13:08:53;8.60;79.60
43673;DHT22;41723;49.326;8.430;2023-02-28T13:11:28;8.90;79.70
43673;DHT22;41723;49.326;8.430;2023-02-28T13:14:05;8.80;79.40
43673;DHT22;41723;49.326;8.430;2023-02-28T13:19:16;8.50;79.10
43673;DHT22;41723;49.326;8.430;2023-02-28T13:21:43;8.20;79.70
43673;DHT22;41723;49.326;8.430;2023-02-28T13:24:10;8.00;80.70
43673;DHT22;41723;49.326;8.430;2023-02-28T13:32:18;7.40;86.30
43673;DHT22;41723;49.326;8.430;2023-02-28T13:34:24;7.70;82.90
43673;DHT22;41723;49.326;8.430;2023-02-28T13:36:50;7.60;82.30
43673;DHT22;41723;49.326;8.430;2023-02-28T13:42:17;7.60;82.90
43673;DHT22;41723;49.326;8.430;2023-02-28T13:45:19;7.70;82.20
43673;DHT22;41723;49.326;8.430;2023-02-28T13:47:59;7.90;82.00
43673;DHT22;41723;49.326;8.430;2023-02-28T14:03:00;7.80;81.70
43673;DHT22;41723;49.326;8.430;2023-02-28T14:05:32;7.80;82.90
43673;DHT22;41723;49.326;8.430;2023-02-28T14:07:59;8.00;81.70
43673;DHT22;41723;49.326;8.430;2023-02-28T14:10:31;8.00;81.60
43673;DHT22;41723;49.326;8.430;2023-02-28T14:13:02;8.10;82.50
43673;DHT22;41723;49.326;8.430;2023-02-28T14:15:45;8.20;80.40
43673;DHT22;41723;49.326;8.430;2023-02-28T14:18:20;8.40;81.90
43673;DHT22;41723;49.326;8.430;2023-02-28T14:20:47;8.40;80.60
43673;DHT22;41723;49.326;8.430;2023-02-28T14:26:03;8.20;80.80
43673;DHT22;41723;49.326;8.430;2023-02-28T14:31:41;8.00;81.80
43673;DHT22;41723;49.326;8.430;2023-02-28T14:36:37;8.30;82.00
43673;DHT22;41723;49.326;8.430;2023-02-28T14:39:11;8.30;80.60
43673;DHT22;41723;49.326;8.430;2023-02-28T14:41:38;8.30;80.50
43673;DHT22;41723;49.326;8.430;2023-02-28T14:46:43;8.00;81.80
43673;DHT22;41723;49.326;8.430;2023-02-28T14:49:13;7.50;82.20
43673;DHT22;41723;49.326;8.430;2023-02-28T14:51:40;7.30;82.70
43673;DHT22;41723;49.326;8.430;2023-02-28T14:54:06;7.50;83.30
43673;DHT22;41723;49.326;8.430;2023-02-28T14:56:35;7.70;82.40
43673;DHT22;41723;49.326;8.430;2023-02-28T14:59:02;7.80;82.40
43673;DHT22;41723;49.326;8.430;2023-02-28T15:01:30;7.80;82.10
43673;DHT22;41723;49.326;8.430;2023-02-28T15:03:59;7.70;82.20
43673;DHT22;41723;49.326;8.430;2023-02-28T15:06:26;7.70;82.60
43673;DHT22;41723;49.326;8.430;2023-02-28T15:09:14;7.70;82.00
43673;DHT22;41723;49.326;8.430;2023-02-28T15:11:40;7.50;81.40
43673;DHT22;41723;49.326;8.430;2023-02-28T15:14:05;7.30;82.20
43673;DHT22;41723;49.326;8.430;2023-02-28T15:16:32;7.30;83.50
43673;DHT22;41723;49.326;8.430;2023-02-28T15:19:04;7.40;83.60
43673;DHT22;41723;49.326;8.430;2023-02-28T15:21:32;7.40;83.20
43673;DHT22;41723;49.326;8.430;2023-02-28T15:24:06;7.30;83.10
43673;DHT22;41723;49.326;8.430;2023-02-28T15:26:33;7.10;85.00
43673;DHT22;41723;49.326;8.430;2023-02-28T15:29:00;7.10;83.50
43673;DHT22;41723;49.326;8.430;2023-02-28T15:31:27;7.00;85.00
43673;DHT22;41723;49.326;8.430;2023-02-28T15:33:57;7.10;84.90
43673;DHT22;41723;49.326;8.430;2023-02-28T15:36:28;6.90;84.70
43673;DHT22;41723;49.326;8.430;2023-02-28T15:38:54;7.00;84.70
43673;DHT22;41723;49.326;8.430;2023-02-28T15:46:36;7.00;85.20
43673;DHT22;41723;49.326;8.430;2023-02-28T15:49:01;6.90;85.10
43673;DHT22;41723;49.326;8.430;2023-02-28T15:51:32;6.80;84.90
43673;DHT22;41723;49.326;8.430;2023-02-28T15:53:59;6.80;85.40
43673;DHT22;41723;49.326;8.430;2023-02-28T15:57:00;6.90;85.30
43673;DHT22;41723;49.326;8.430;2023-02-28T15:59:18;7.00;85.80
43673;DHT22;41723;49.326;8.430;2023-02-28T16:01:45;6.70;85.30
43673;DHT22;41723;49.326;8.430;2023-02-28T16:04:14;6.30;87.00
43673;DHT22;41723;49.326;8.430;2023-02-28T16:09:11;6.40;87.90
43673;DHT22;41723;49.326;8.430;2023-02-28T16:11:39;6.50;87.60
43673;DHT22;41723;49.326;8.430;2023-02-28T16:14:06;6.50;87.50
43673;DHT22;41723;49.326;8.430;2023-02-28T16:16:31;6.40;87.10
43673;DHT22;41723;49.326;8.430;2023-02-28T16:18:58;6.20;87.00
43673;DHT22;41723;49.326;8.430;2023-02-28T16:21:24;6.30;88.60
43673;DHT22;41723;49.326;8.430;2023-02-28T16:23:50;6.20;87.70
43673;DHT22;41723;49.326;8.430;2023-02-28T16:26:20;6.10;88.10
43673;DHT22;41723;49.326;8.430;2023-02-28T16:28:46;6.00;89.20
43673;DHT22;41723;49.326;8.430;2023-02-28T16:31:12;5.90;88.80
43673;DHT22;41723;49.326;8.430;2023-02-28T16:33:42;5.90;87.90
43673;DHT22;41723;49.326;8.430;2023-02-28T16:36:27;5.80;88.70
43673;DHT22;41723;49.326;8.430;2023-02-28T16:38:53;5.60;89.20
43673;DHT22;41723;49.326;8.430;2023-02-28T16:41:20;5.40;89.50
43673;DHT22;41723;49.326;8.430;2023-02-28T16:43:47;5.40;89.70
43673;DHT22;41723;49.326;8.430;2023-02-28T16:46:13;5.30;90.10
43673;DHT22;41723;49.326;8.430;2023-02-28T16:48:39;5.30;90.20
43673;DHT22;41723;49.326;8.430;2023-02-28T16:51:08;5.30;90.30
43673;DHT22;41723;49.326;8.430;2023-02-28T16:53:33;5.30;90.50
43673;DHT22;41723;49.326;8.430;2023-02-28T16:56:00;5.30;90.60
43673;DHT22;41723;49.326;8.430;2023-02-28T16:58:27;5.30;90.20
43673;DHT22;41723;49.326;8.430;2023-02-28T17:00:53;5.30;90.20
43673;DHT22;41723;49.326;8.430;2023-02-28T17:03:22;5.30;90.50
43673;DHT22;41723;49.326;8.430;2023-02-28T17:05:48;5.30;90.60
43673;DHT22;41723;49.326;8.430;2023-02-28T17:08:13;5.50;90.60
43673;DHT22;41723;49.326;8.430;2023-02-28T17:10:39;5.50;90.70
43673;DHT22;41723;49.326;8.430;2023-02-28T17:13:04;5.50;90.30
43673;DHT22;41723;49.326;8.430;2023-02-28T17:15:33;5.50;90.40
43673;DHT22;41723;49.326;8.430;2023-02-28T17:17:59;5.30;90.50
43673;DHT22;41723;49.326;8.430;2023-02-28T17:20:24;5.40;90.80
43673;DHT22;41723;49.326;8.430;2023-02-28T17:22:54;5.30;90.60
43673;DHT22;41723;49.326;8.430;2023-02-28T17:25:20;5.30;90.50
43673;DHT22;41723;49.326;8.430;2023-02-28T17:27:47;5.20;90.80
43673;DHT22;41723;49.326;8.430;2023-02-28T17:30:16;5.10;90.80
43673;DHT22;41723;49.326;8.430;2023-02-28T17:32:42;5.20;91.00
43673;DHT22;41723;49.326;8.430;2023-02-28T17:35:08;5.20;91.00
43673;DHT22;41723;49.326;8.430;2023-02-28T17:37:33;5.10;91.10
43673;DHT22;41723;49.326;8.430;2023-02-28T17:39:59;5.10;91.50
43673;DHT22;41723;49.326;8.430;2023-02-28T17:42:24;5.20;91.10
43673;DHT22;41723;49.326;8.430;2023-02-28T17:44:50;5.20;91.40
43673;DHT22;41723;49.326;8.430;2023-02-28T17:47:15;5.10;91.30
43673;DHT22;41723;49.326;8.430;2023-02-28T17:49:41;5.10;91.70
43673;DHT22;41723;49.326;8.430;2023-02-28T17:52:07;5.00;91.40
43673;DHT22;41723;49.326;8.430;2023-02-28T17:54:33;4.90;91.50
43673;DHT22;41723;49.326;8.430;2023-02-28T17:56:58;4.90;91.60